sensor_id;sensor_type;location;lat;lon;timestamp;temperature;humidity
216;HTU21D;70668;48.81286795;9.14184224;2024-02-04T00:00:04;8.31;91.81
216;HTU21D;70668;48.81286795;9.14184224;2024-02-04T00:02:42;8.31;92.34
216;HTU21D;70668;48.81286795;9.14184224;2024-02-04T00:05:10;8.27;92.49
216;HTU21D;70668;48.81286795;9.14184224;2024-02-04T00:07:39;8.33;92.04
216;HTU21D;70668;48.81286795;9.14184224;2024-02-04T00:10:10;8.30;92.53
216;HTU21D;70668;48.81286795;9.14184224;2024-02-04T00:12:41;8.34;92.24
216;HTU21D;70668;48.81286795;9.14184224;2024-02-04T00:15:10;8.23;92.59
216;HTU21D;70668;48.81286795;9.14184224;2024-02-04T00:17:38;8.23;92.45
216;HTU21D;70668;48.81286795;9.14184224;2024-02-04T00:20:08;8.20;93.12
216;HTU21D;70668;48.81286795;9.14184224;2024-02-04T00:22:36;8.22;92.28
216;HTU21D;70668;48.81286795;9.14184224;2024-02-04T00:25:05;8.20;92.30
216;HTU21D;70668;48.81286795;9.14184224;2024-02-04T00:27:39;8.08;92.39
216;HTU21D;70668;48.81286795;9.14184224;2024-02-04T00:30:09;8.22;91.60
216;HTU21D;70668;48.81286795;9.14184224;2024-02-04T00:32:37;8.04;92.69
216;HTU21D;70668;48.81286795;9.14184224;2024-02-04T00:35:06;8.09;92.08
216;HTU21D;70668;48.81286795;9.14184224;2024-02-04T00:37:35;8.12;92.26
216;HTU21D;70668;48.81286795;9.14184224;2024-02-04T00:40:04;8.00;93.01
216;HTU21D;70668;48.81286795;9.14184224;2024-02-04T00:42:33;8.07;92.57
216;HTU21D;70668;48.81286795;9.14184224;2024-02-04T00:45:04;8.05;92.52
216;HTU21D;70668;48.81286795;9.14184224;2024-02-04T00:47:33;8.09;92.29
216;HTU21D;70668;48.81286795;9.14184224;2024-02-04T00:50:01;8.05;92.56
216;HTU21D;70668;48.81286795;9.14184224;2024-02-04T00:52:30;7.89;93.66
216;HTU21D;70668;48.81286795;9.14184224;2024-02-04T00:54:58;7.99;92.98
216;HTU21D;70668;48.81286795;9.14184224;2024-02-04T00:57:27;7.94;92.78
216;HTU21D;70668;48.81286795;9.14184224;2024-02-04T00:59:55;7.93;93.31
216;HTU21D;70668;48.81286795;9.14184224;2024-02-04T01:02:26;7.91;93.22
216;HTU21D;70668;48.81286795;9.14184224;2024-02-04T01:04:55;7.92;93.67
216;HTU21D;70668;48.81286795;9.14184224;2024-02-04T01:07:23;7.98;92.44
216;HTU21D;70668;48.81286795;9.14184224;2024-02-04T01:09:51;7.96;92.80
216;HTU21D;70668;48.81286795;9.14184224;2024-02-04T01:12:20;7.88;93.08
216;HTU21D;70668;48.81286795;9.14184224;2024-02-04T01:14:49;7.88;93.50
216;HTU21D;70668;48.81286795;9.14184224;2024-02-04T01:17:17;7.82;93.34
216;HTU21D;70668;48.81286795;9.14184224;2024-02-04T01:19:48;7.87;93.24
216;HTU21D;70668;48.81286795;9.14184224;2024-02-04T01:22:17;7.92;92.93
216;HTU21D;70668;48.81286795;9.14184224;2024-02-04T01:24:50;7.78;93.72
216;HTU21D;70668;48.81286795;9.14184224;2024-02-04T01:27:19;7.68;94.34
216;HTU21D;70668;48.81286795;9.14184224;2024-02-04T01:29:47;7.75;94.43
216;HTU21D;70668;48.81286795;9.14184224;2024-02-04T01:32:16;7.69;94.00
216;HTU21D;70668;48.81286795;9.14184224;2024-02-04T01:34:44;7.70;94.14
216;HTU21D;70668;48.81286795;9.14184224;2024-02-04T01:37:15;7.65;93.92
216;HTU21D;70668;48.81286795;9.14184224;2024-02-04T01:39:44;7.38;94.88
216;HTU21D;70668;48.81286795;9.14184224;2024-02-04T01:42:12;7.39;95.52
216;HTU21D;70668;48.81286795;9.14184224;2024-02-04T01:44:41;7.32;95.73
216;HTU21D;70668;48.81286795;9.14184224;2024-02-04T01:47:10;7.32;95.79
216;HTU21D;70668;48.81286795;9.14184224;2024-02-04T01:49:39;7.48;94.40
216;HTU21D;70668;48.81286795;9.14184224;2024-02-04T01:52:08;7.49;94.67
216;HTU21D;70668;48.81286795;9.14184224;2024-02-04T01:54:42;7.44;95.30
216;HTU21D;70668;48.81286795;9.14184224;2024-02-04T01:57:10;7.54;94.40
216;HTU21D;70668;48.81286795;9.14184224;2024-02-04T01:59:40;7.59;94.39
216;HTU21D;70668;48.81286795;9.14184224;2024-02-04T02:02:09;7.52;94.49
216;HTU21D;70668;48.81286795;9.14184224;2024-02-04T02:04:38;7.58;94.43
216;HTU21D;70668;48.81286795;9.14184224;2024-02-04T02:07:07;7.58;94.52
216;HTU21D;70668;48.81286795;9.14184224;2024-02-04T02:09:35;7.76;93.58
216;HTU21D;70668;48.81286795;9.14184224;2024-02-04T02:12:09;7.54;94.79
216;HTU21D;70668;48.81286795;9.14184224;2024-02-04T02:14:43;7.68;94.12
216;HTU21D;70668;48.81286795;9.14184224;2024-02-04T02:17:13;7.63;94.05
216;HTU21D;70668;48.81286795;9.14184224;2024-02-04T02:19:50;7.67;94.25
216;HTU21D;70668;48.81286795;9.14184224;2024-02-04T02:22:28;7.67;94.10
216;HTU21D;70668;48.81286795;9.14184224;2024-02-04T02:25:00;7.62;94.40
216;HTU21D;70668;48.81286795;9.14184224;2024-02-04T02:27:30;7.69;94.11
216;HTU21D;70668;48.81286795;9.14184224;2024-02-04T02:29:59;7.50;95.24
216;HTU21D;70668;48.81286795;9.14184224;2024-02-04T02:32:28;7.35;96.49
216;HTU21D;70668;48.81286795;9.14184224;2024-02-04T02:34:56;7.33;96.50
216;HTU21D;70668;48.81286795;9.14184224;2024-02-04T02:37:29;7.42;96.33
216;HTU21D;70668;48.81286795;9.14184224;2024-02-04T02:40:05;7.44;96.07
216;HTU21D;70668;48.81286795;9.14184224;2024-02-04T02:42:38;7.65;94.27
216;HTU21D;70668;48.81286795;9.14184224;2024-02-04T02:45:07;7.76;94.01
216;HTU21D;70668;48.81286795;9.14184224;2024-02-04T02:47:37;7.77;93.89
216;HTU21D;70668;48.81286795;9.14184224;2024-02-04T02:50:07;7.76;93.82
216;HTU21D;70668;48.81286795;9.14184224;2024-02-04T02:52:36;7.73;94.17
216;HTU21D;70668;48.81286795;9.14184224;2024-02-04T02:55:08;7.85;93.69
216;HTU21D;70668;48.81286795;9.14184224;2024-02-04T02:57:36;7.76;93.97
216;HTU21D;70668;48.81286795;9.14184224;2024-02-04T03:00:06;7.73;94.37
216;HTU21D;70668;48.81286795;9.14184224;2024-02-04T03:02:35;7.83;94.17
216;HTU21D;70668;48.81286795;9.14184224;2024-02-04T03:05:04;7.85;93.90
216;HTU21D;70668;48.81286795;9.14184224;2024-02-04T03:07:33;7.81;94.58
216;HTU21D;70668;48.81286795;9.14184224;2024-02-04T03:10:01;7.85;94.21
216;HTU21D;70668;48.81286795;9.14184224;2024-02-04T03:12:32;7.85;93.85
216;HTU21D;70668;48.81286795;9.14184224;2024-02-04T03:15:01;7.89;93.88
216;HTU21D;70668;48.81286795;9.14184224;2024-02-04T03:17:30;7.96;93.72
216;HTU21D;70668;48.81286795;9.14184224;2024-02-04T03:19:58;8.03;93.57
216;HTU21D;70668;48.81286795;9.14184224;2024-02-04T03:22:26;7.99;93.77
216;HTU21D;70668;48.81286795;9.14184224;2024-02-04T03:24:55;7.98;93.85
216;HTU21D;70668;48.81286795;9.14184224;2024-02-04T03:27:24;8.06;93.46
216;HTU21D;70668;48.81286795;9.14184224;2024-02-04T03:29:55;8.02;93.71
216;HTU21D;70668;48.81286795;9.14184224;2024-02-04T03:32:23;7.99;93.82
216;HTU21D;70668;48.81286795;9.14184224;2024-02-04T03:34:52;8.00;94.08
216;HTU21D;70668;48.81286795;9.14184224;2024-02-04T03:37:21;7.99;94.40
216;HTU21D;70668;48.81286795;9.14184224;2024-02-04T03:40:01;8.01;93.98
216;HTU21D;70668;48.81286795;9.14184224;2024-02-04T03:42:30;8.09;93.47
216;HTU21D;70668;48.81286795;9.14184224;2024-02-04T03:45:03;8.09;93.80
216;HTU21D;70668;48.81286795;9.14184224;2024-02-04T03:47:31;7.89;95.49
216;HTU21D;70668;48.81286795;9.14184224;2024-02-04T03:50:00;7.99;94.56
216;HTU21D;70668;48.81286795;9.14184224;2024-02-04T03:52:29;7.96;94.01
216;HTU21D;70668;48.81286795;9.14184224;2024-02-04T03:54:58;7.91;94.14
216;HTU21D;70668;48.81286795;9.14184224;2024-02-04T03:57:27;7.97;93.71
216;HTU21D;70668;48.81286795;9.14184224;2024-02-04T03:59:56;7.98;93.58
216;HTU21D;70668;48.81286795;9.14184224;2024-02-04T04:02:27;8.02;93.69
216;HTU21D;70668;48.81286795;9.14184224;2024-02-04T04:04:55;8.08;93.24
216;HTU21D;70668;48.81286795;9.14184224;2024-02-04T04:07:24;8.04;93.33
216;HTU21D;70668;48.81286795;9.14184224;2024-02-04T04:09:52;8.02;93.46
216;HTU21D;70668;48.81286795;9.14184224;2024-02-04T04:12:20;8.07;93.11
216;HTU21D;70668;48.81286795;9.14184224;2024-02-04T04:14:49;8.07;93.55
216;HTU21D;70668;48.81286795;9.14184224;2024-02-04T04:17:18;8.13;93.05
216;HTU21D;70668;48.81286795;9.14184224;2024-02-04T04:19:49;8.08;93.31
216;HTU21D;70668;48.81286795;9.14184224;2024-02-04T04:22:18;8.05;93.85
216;HTU21D;70668;48.81286795;9.14184224;2024-02-04T04:24:46;8.12;93.16
216;HTU21D;70668;48.81286795;9.14184224;2024-02-04T04:27:15;8.16;93.19
216;HTU21D;70668;48.81286795;9.14184224;2024-02-04T04:29:43;8.03;93.59
216;HTU21D;70668;48.81286795;9.14184224;2024-02-04T04:32:12;8.07;92.98
216;HTU21D;70668;48.81286795;9.14184224;2024-02-04T04:34:41;8.17;93.06
216;HTU21D;70668;48.81286795;9.14184224;2024-02-04T04:37:12;8.04;93.22
216;HTU21D;70668;48.81286795;9.14184224;2024-02-04T04:39:40;8.12;93.06
216;HTU21D;70668;48.81286795;9.14184224;2024-02-04T04:42:08;8.06;93.17
216;HTU21D;70668;48.81286795;9.14184224;2024-02-04T04:44:37;8.03;93.51
216;HTU21D;70668;48.81286795;9.14184224;2024-02-04T04:47:06;8.06;93.44
216;HTU21D;70668;48.81286795;9.14184224;2024-02-04T04:49:34;8.09;93.37
216;HTU21D;70668;48.81286795;9.14184224;2024-02-04T04:52:03;8.06;93.45
216;HTU21D;70668;48.81286795;9.14184224;2024-02-04T04:54:34;8.08;93.37
216;HTU21D;70668;48.81286795;9.14184224;2024-02-04T04:57:03;8.15;93.24
216;HTU21D;70668;48.81286795;9.14184224;2024-02-04T04:59:32;8.06;93.70
216;HTU21D;70668;48.81286795;9.14184224;2024-02-04T05:02:01;8.14;93.28
216;HTU21D;70668;48.81286795;9.14184224;2024-02-04T05:04:30;8.06;93.62
216;HTU21D;70668;48.81286795;9.14184224;2024-02-04T05:06:58;8.16;93.38
216;HTU21D;70668;48.81286795;9.14184224;2024-02-04T05:09:27;8.13;93.40
216;HTU21D;70668;48.81286795;9.14184224;2024-02-04T05:11:58;8.00;94.80
216;HTU21D;70668;48.81286795;9.14184224;2024-02-04T05:14:26;8.13;93.04
216;HTU21D;70668;48.81286795;9.14184224;2024-02-04T05:16:55;8.13;93.40
216;HTU21D;70668;48.81286795;9.14184224;2024-02-04T05:19:23;8.07;93.66
216;HTU21D;70668;48.81286795;9.14184224;2024-02-04T05:21:52;8.11;93.72
216;HTU21D;70668;48.81286795;9.14184224;2024-02-04T05:24:20;8.15;93.78
216;HTU21D;70668;48.81286795;9.14184224;2024-02-04T05:26:49;8.17;94.11
216;HTU21D;70668;48.81286795;9.14184224;2024-02-04T05:29:20;8.14;93.35
216;HTU21D;70668;48.81286795;9.14184224;2024-02-04T05:31:48;8.04;94.70
216;HTU21D;70668;48.81286795;9.14184224;2024-02-04T05:34:17;7.98;94.81
216;HTU21D;70668;48.81286795;9.14184224;2024-02-04T05:36:45;8.00;94.67
216;HTU21D;70668;48.81286795;9.14184224;2024-02-04T05:39:15;8.01;93.95
216;HTU21D;70668;48.81286795;9.14184224;2024-02-04T05:41:44;7.99;94.46
216;HTU21D;70668;48.81286795;9.14184224;2024-02-04T05:44:13;8.19;93.26
216;HTU21D;70668;48.81286795;9.14184224;2024-02-04T05:46:44;8.14;93.88
216;HTU21D;70668;48.81286795;9.14184224;2024-02-04T05:49:12;8.04;94.86
216;HTU21D;70668;48.81286795;9.14184224;2024-02-04T05:51:41;8.14;93.76
216;HTU21D;70668;48.81286795;9.14184224;2024-02-04T05:54:10;8.23;92.98
216;HTU21D;70668;48.81286795;9.14184224;2024-02-04T05:56:38;8.12;93.80
216;HTU21D;70668;48.81286795;9.14184224;2024-02-04T05:59:07;8.19;93.33
216;HTU21D;70668;48.81286795;9.14184224;2024-02-04T06:01:35;8.18;93.71
216;HTU21D;70668;48.81286795;9.14184224;2024-02-04T06:04:06;8.29;92.73
216;HTU21D;70668;48.81286795;9.14184224;2024-02-04T06:06:35;8.38;92.36
216;HTU21D;70668;48.81286795;9.14184224;2024-02-04T06:09:03;8.29;92.81
216;HTU21D;70668;48.81286795;9.14184224;2024-02-04T06:11:32;8.28;92.89
216;HTU21D;70668;48.81286795;9.14184224;2024-02-04T06:14:00;8.34;93.04
216;HTU21D;70668;48.81286795;9.14184224;2024-02-04T06:16:29;8.36;93.13
216;HTU21D;70668;48.81286795;9.14184224;2024-02-04T06:18:59;8.29;93.10
216;HTU21D;70668;48.81286795;9.14184224;2024-02-04T06:21:31;8.41;92.14
216;HTU21D;70668;48.81286795;9.14184224;2024-02-04T06:23:59;8.34;92.58
216;HTU21D;70668;48.81286795;9.14184224;2024-02-04T06:26:28;8.39;92.70
216;HTU21D;70668;48.81286795;9.14184224;2024-02-04T06:28:56;8.43;92.01
216;HTU21D;70668;48.81286795;9.14184224;2024-02-04T06:31:24;8.44;91.82
216;HTU21D;70668;48.81286795;9.14184224;2024-02-04T06:33:53;8.36;92.46
216;HTU21D;70668;48.81286795;9.14184224;2024-02-04T06:36:21;8.36;92.06
216;HTU21D;70668;48.81286795;9.14184224;2024-02-04T06:38:52;8.32;92.32
216;HTU21D;70668;48.81286795;9.14184224;2024-02-04T06:41:21;8.33;91.98
216;HTU21D;70668;48.81286795;9.14184224;2024-02-04T06:43:49;8.30;92.12
216;HTU21D;70668;48.81286795;9.14184224;2024-02-04T06:46:24;8.35;91.75
216;HTU21D;70668;48.81286795;9.14184224;2024-02-04T06:48:53;8.33;91.93
216;HTU21D;70668;48.81286795;9.14184224;2024-02-04T06:51:22;8.31;92.07
216;HTU21D;70668;48.81286795;9.14184224;2024-02-04T06:53:53;8.23;92.56
216;HTU21D;70668;48.81286795;9.14184224;2024-02-04T06:56:22;8.24;92.57
216;HTU21D;70668;48.81286795;9.14184224;2024-02-04T06:58:50;8.24;92.43
216;HTU21D;70668;48.81286795;9.14184224;2024-02-04T07:01:19;8.20;92.82
216;HTU21D;70668;48.81286795;9.14184224;2024-02-04T07:03:47;8.19;92.88
216;HTU21D;70668;48.81286795;9.14184224;2024-02-04T07:06:16;8.17;92.86
216;HTU21D;70668;48.81286795;9.14184224;2024-02-04T07:08:44;8.14;93.42
216;HTU21D;70668;48.81286795;9.14184224;2024-02-04T07:11:15;8.05;93.53
216;HTU21D;70668;48.81286795;9.14184224;2024-02-04T07:13:44;8.06;93.59
216;HTU21D;70668;48.81286795;9.14184224;2024-02-04T07:16:13;8.14;93.24
216;HTU21D;70668;48.81286795;9.14184224;2024-02-04T07:18:41;8.08;93.47
216;HTU21D;70668;48.81286795;9.14184224;2024-02-04T07:21:10;8.05;93.75
216;HTU21D;70668;48.81286795;9.14184224;2024-02-04T07:23:38;7.94;94.30
216;HTU21D;70668;48.81286795;9.14184224;2024-02-04T07:26:07;8.03;93.92
216;HTU21D;70668;48.81286795;9.14184224;2024-02-04T07:28:38;7.98;94.29
216;HTU21D;70668;48.81286795;9.14184224;2024-02-04T07:31:07;7.98;94.60
216;HTU21D;70668;48.81286795;9.14184224;2024-02-04T07:33:35;8.03;94.03
216;HTU21D;70668;48.81286795;9.14184224;2024-02-04T07:36:05;8.16;93.32
216;HTU21D;70668;48.81286795;9.14184224;2024-02-04T07:38:34;8.17;93.40
216;HTU21D;70668;48.81286795;9.14184224;2024-02-04T07:41:02;8.29;92.81
216;HTU21D;70668;48.81286795;9.14184224;2024-02-04T07:43:31;8.42;92.21
216;HTU21D;70668;48.81286795;9.14184224;2024-02-04T07:46:02;8.44;92.21
216;HTU21D;70668;48.81286795;9.14184224;2024-02-04T07:48:30;8.50;92.24
216;HTU21D;70668;48.81286795;9.14184224;2024-02-04T07:50:59;8.55;91.87
216;HTU21D;70668;48.81286795;9.14184224;2024-02-04T07:53:28;8.58;91.66
216;HTU21D;70668;48.81286795;9.14184224;2024-02-04T07:55:56;8.62;91.81
216;HTU21D;70668;48.81286795;9.14184224;2024-02-04T07:58:25;8.60;91.76
216;HTU21D;70668;48.81286795;9.14184224;2024-02-04T08:00:53;8.66;91.58
216;HTU21D;70668;48.81286795;9.14184224;2024-02-04T08:03:24;8.70;91.19
216;HTU21D;70668;48.81286795;9.14184224;2024-02-04T08:05:53;8.74;90.92
216;HTU21D;70668;48.81286795;9.14184224;2024-02-04T08:08:21;8.72;91.13
216;HTU21D;70668;48.81286795;9.14184224;2024-02-04T08:10:50;8.72;91.50
216;HTU21D;70668;48.81286795;9.14184224;2024-02-04T08:13:18;8.72;91.15
216;HTU21D;70668;48.81286795;9.14184224;2024-02-04T08:15:47;8.75;91.17
216;HTU21D;70668;48.81286795;9.14184224;2024-02-04T08:18:16;8.68;91.57
216;HTU21D;70668;48.81286795;9.14184224;2024-02-04T08:20:47;8.68;91.19
216;HTU21D;70668;48.81286795;9.14184224;2024-02-04T08:23:15;8.77;90.82
216;HTU21D;70668;48.81286795;9.14184224;2024-02-04T08:25:43;8.95;90.89
216;HTU21D;70668;48.81286795;9.14184224;2024-02-04T08:28:12;8.85;90.93
216;HTU21D;70668;48.81286795;9.14184224;2024-02-04T08:30:41;8.93;91.05
216;HTU21D;70668;48.81286795;9.14184224;2024-02-04T08:33:09;8.92;90.77
216;HTU21D;70668;48.81286795;9.14184224;2024-02-04T08:35:37;9.06;89.98
216;HTU21D;70668;48.81286795;9.14184224;2024-02-04T08:38:08;9.03;90.43
216;HTU21D;70668;48.81286795;9.14184224;2024-02-04T08:40:37;9.05;89.80
216;HTU21D;70668;48.81286795;9.14184224;2024-02-04T08:43:06;9.10;90.09
216;HTU21D;70668;48.81286795;9.14184224;2024-02-04T08:45:34;9.09;89.56
216;HTU21D;70668;48.81286795;9.14184224;2024-02-04T08:48:03;9.01;89.66
216;HTU21D;70668;48.81286795;9.14184224;2024-02-04T08:50:32;9.09;89.56
216;HTU21D;70668;48.81286795;9.14184224;2024-02-04T08:53:00;9.24;89.22
216;HTU21D;70668;48.81286795;9.14184224;2024-02-04T08:55:31;9.20;89.39
216;HTU21D;70668;48.81286795;9.14184224;2024-02-04T08:57:59;9.19;89.33
216;HTU21D;70668;48.81286795;9.14184224;2024-02-04T09:00:28;9.18;89.34
216;HTU21D;70668;48.81286795;9.14184224;2024-02-04T09:02:56;9.23;88.83
216;HTU21D;70668;48.81286795;9.14184224;2024-02-04T09:05:25;9.32;88.43
216;HTU21D;70668;48.81286795;9.14184224;2024-02-04T09:07:53;9.30;88.65
216;HTU21D;70668;48.81286795;9.14184224;2024-02-04T09:10:22;9.36;88.09
216;HTU21D;70668;48.81286795;9.14184224;2024-02-04T09:12:53;9.36;88.70
216;HTU21D;70668;48.81286795;9.14184224;2024-02-04T09:15:22;9.36;88.55
216;HTU21D;70668;48.81286795;9.14184224;2024-02-04T09:17:50;9.45;88.42
216;HTU21D;70668;48.81286795;9.14184224;2024-02-04T09:20:19;9.54;87.82
216;HTU21D;70668;48.81286795;9.14184224;2024-02-04T09:22:48;9.55;87.59
216;HTU21D;70668;48.81286795;9.14184224;2024-02-04T09:25:16;9.64;87.50
216;HTU21D;70668;48.81286795;9.14184224;2024-02-04T09:27:45;9.56;87.80
216;HTU21D;70668;48.81286795;9.14184224;2024-02-04T09:30:16;9.67;87.55
216;HTU21D;70668;48.81286795;9.14184224;2024-02-04T09:32:44;9.68;87.57
216;HTU21D;70668;48.81286795;9.14184224;2024-02-04T09:35:13;9.61;87.82
216;HTU21D;70668;48.81286795;9.14184224;2024-02-04T09:37:42;9.66;87.77
216;HTU21D;70668;48.81286795;9.14184224;2024-02-04T09:40:12;9.65;87.28
216;HTU21D;70668;48.81286795;9.14184224;2024-02-04T09:42:40;9.69;87.30
216;HTU21D;70668;48.81286795;9.14184224;2024-02-04T09:45:09;9.81;86.82
216;HTU21D;70668;48.81286795;9.14184224;2024-02-04T09:47:44;9.82;86.83
216;HTU21D;70668;48.81286795;9.14184224;2024-02-04T09:50:13;10.03;86.14
216;HTU21D;70668;48.81286795;9.14184224;2024-02-04T09:52:44;9.99;86.14
216;HTU21D;70668;48.81286795;9.14184224;2024-02-04T09:55:20;9.95;86.25
216;HTU21D;70668;48.81286795;9.14184224;2024-02-04T09:57:48;10.06;86.29
216;HTU21D;70668;48.81286795;9.14184224;2024-02-04T10:00:19;10.09;85.48
216;HTU21D;70668;48.81286795;9.14184224;2024-02-04T10:02:50;10.22;85.73
216;HTU21D;70668;48.81286795;9.14184224;2024-02-04T10:05:19;10.22;85.05
216;HTU21D;70668;48.81286795;9.14184224;2024-02-04T10:07:47;10.15;85.38
216;HTU21D;70668;48.81286795;9.14184224;2024-02-04T10:10:16;10.25;84.59
216;HTU21D;70668;48.81286795;9.14184224;2024-02-04T10:12:44;10.40;84.20
216;HTU21D;70668;48.81286795;9.14184224;2024-02-04T10:15:13;10.36;84.32
216;HTU21D;70668;48.81286795;9.14184224;2024-02-04T10:17:42;10.48;83.74
216;HTU21D;70668;48.81286795;9.14184224;2024-02-04T10:20:16;10.33;84.82
216;HTU21D;70668;48.81286795;9.14184224;2024-02-04T10:22:44;10.49;84.17
216;HTU21D;70668;48.81286795;9.14184224;2024-02-04T10:25:14;10.39;84.28
216;HTU21D;70668;48.81286795;9.14184224;2024-02-04T10:27:43;10.33;84.35
216;HTU21D;70668;48.81286795;9.14184224;2024-02-04T10:30:13;10.55;83.94
216;HTU21D;70668;48.81286795;9.14184224;2024-02-04T10:32:41;10.57;83.45
216;HTU21D;70668;48.81286795;9.14184224;2024-02-04T10:35:11;10.46;83.62
216;HTU21D;70668;48.81286795;9.14184224;2024-02-04T10:37:42;10.58;83.46
216;HTU21D;70668;48.81286795;9.14184224;2024-02-04T10:40:11;10.59;83.88
216;HTU21D;70668;48.81286795;9.14184224;2024-02-04T10:42:42;10.68;83.71
216;HTU21D;70668;48.81286795;9.14184224;2024-02-04T10:45:11;10.86;83.00
216;HTU21D;70668;48.81286795;9.14184224;2024-02-04T10:47:40;10.70;83.35
216;HTU21D;70668;48.81286795;9.14184224;2024-02-04T10:50:11;10.77;84.14
216;HTU21D;70668;48.81286795;9.14184224;2024-02-04T10:52:44;10.82;83.52
216;HTU21D;70668;48.81286795;9.14184224;2024-02-04T10:55:17;10.99;83.21
216;HTU21D;70668;48.81286795;9.14184224;2024-02-04T10:57:48;10.89;83.08
216;HTU21D;70668;48.81286795;9.14184224;2024-02-04T11:00:18;10.96;83.19
216;HTU21D;70668;48.81286795;9.14184224;2024-02-04T11:02:48;10.82;83.26
216;HTU21D;70668;48.81286795;9.14184224;2024-02-04T11:05:20;10.71;83.94
216;HTU21D;70668;48.81286795;9.14184224;2024-02-04T11:07:52;10.85;83.00
216;HTU21D;70668;48.81286795;9.14184224;2024-02-04T11:10:21;11.20;82.86
216;HTU21D;70668;48.81286795;9.14184224;2024-02-04T11:12:51;11.30;81.02
216;HTU21D;70668;48.81286795;9.14184224;2024-02-04T11:15:20;11.44;81.18
216;HTU21D;70668;48.81286795;9.14184224;2024-02-04T11:18:21;11.52;81.33
216;HTU21D;70668;48.81286795;9.14184224;2024-02-04T11:21:07;11.76;80.62
216;HTU21D;70668;48.81286795;9.14184224;2024-02-04T11:23:48;11.68;80.19
216;HTU21D;70668;48.81286795;9.14184224;2024-02-04T11:26:20;11.73;80.84
216;HTU21D;70668;48.81286795;9.14184224;2024-02-04T11:28:50;11.81;80.32
216;HTU21D;70668;48.81286795;9.14184224;2024-02-04T11:31:19;11.79;79.66
216;HTU21D;70668;48.81286795;9.14184224;2024-02-04T11:33:50;11.52;80.85
216;HTU21D;70668;48.81286795;9.14184224;2024-02-04T11:36:24;11.73;81.49
216;HTU21D;70668;48.81286795;9.14184224;2024-02-04T11:38:55;11.46;81.14
216;HTU21D;70668;48.81286795;9.14184224;2024-02-04T11:41:24;11.34;82.09
216;HTU21D;70668;48.81286795;9.14184224;2024-02-04T11:43:55;11.53;81.53
216;HTU21D;70668;48.81286795;9.14184224;2024-02-04T11:46:28;11.64;81.08
216;HTU21D;70668;48.81286795;9.14184224;2024-02-04T11:48:58;11.67;81.60
216;HTU21D;70668;48.81286795;9.14184224;2024-02-04T11:51:27;11.52;81.65
216;HTU21D;70668;48.81286795;9.14184224;2024-02-04T11:53:59;11.79;81.26
216;HTU21D;70668;48.81286795;9.14184224;2024-02-04T11:56:30;11.53;81.84
216;HTU21D;70668;48.81286795;9.14184224;2024-02-04T11:58:59;11.41;82.37
216;HTU21D;70668;48.81286795;9.14184224;2024-02-04T12:01:31;11.25;82.75
216;HTU21D;70668;48.81286795;9.14184224;2024-02-04T12:04:09;11.22;83.00
216;HTU21D;70668;48.81286795;9.14184224;2024-02-04T12:06:38;11.16;83.20
216;HTU21D;70668;48.81286795;9.14184224;2024-02-04T12:09:10;11.32;82.59
216;HTU21D;70668;48.81286795;9.14184224;2024-02-04T12:11:39;11.33;82.13
216;HTU21D;70668;48.81286795;9.14184224;2024-02-04T12:14:08;11.23;82.66
216;HTU21D;70668;48.81286795;9.14184224;2024-02-04T12:16:38;11.05;83.45
216;HTU21D;70668;48.81286795;9.14184224;2024-02-04T12:19:06;11.07;83.13
216;HTU21D;70668;48.81286795;9.14184224;2024-02-04T12:21:34;10.95;83.41
216;HTU21D;70668;48.81286795;9.14184224;2024-02-04T12:24:04;10.98;83.65
216;HTU21D;70668;48.81286795;9.14184224;2024-02-04T12:26:35;10.97;83.65
216;HTU21D;70668;48.81286795;9.14184224;2024-02-04T12:29:05;10.96;83.96
216;HTU21D;70668;48.81286795;9.14184224;2024-02-04T12:31:33;11.00;83.38
216;HTU21D;70668;48.81286795;9.14184224;2024-02-04T12:34:02;10.98;83.52
216;HTU21D;70668;48.81286795;9.14184224;2024-02-04T12:36:31;11.00;83.20
216;HTU21D;70668;48.81286795;9.14184224;2024-02-04T12:39:01;11.03;83.32
216;HTU21D;70668;48.81286795;9.14184224;2024-02-04T12:41:30;11.40;82.69
216;HTU21D;70668;48.81286795;9.14184224;2024-02-04T12:44:01;11.42;81.65
216;HTU21D;70668;48.81286795;9.14184224;2024-02-04T12:46:30;11.27;82.70
216;HTU21D;70668;48.81286795;9.14184224;2024-02-04T12:48:59;11.52;82.02
216;HTU21D;70668;48.81286795;9.14184224;2024-02-04T12:51:29;11.63;81.71
216;HTU21D;70668;48.81286795;9.14184224;2024-02-04T12:54:03;11.64;81.98
216;HTU21D;70668;48.81286795;9.14184224;2024-02-04T12:56:44;11.73;81.91
216;HTU21D;70668;48.81286795;9.14184224;2024-02-04T12:59:26;11.90;81.10
216;HTU21D;70668;48.81286795;9.14184224;2024-02-04T13:01:56;11.88;80.76
216;HTU21D;70668;48.81286795;9.14184224;2024-02-04T13:04:26;12.01;79.76
216;HTU21D;70668;48.81286795;9.14184224;2024-02-04T13:06:55;12.02;79.98
216;HTU21D;70668;48.81286795;9.14184224;2024-02-04T13:09:23;12.01;79.69
216;HTU21D;70668;48.81286795;9.14184224;2024-02-04T13:11:52;11.75;80.90
216;HTU21D;70668;48.81286795;9.14184224;2024-02-04T13:14:33;11.86;80.96
216;HTU21D;70668;48.81286795;9.14184224;2024-02-04T13:17:02;11.77;81.45
216;HTU21D;70668;48.81286795;9.14184224;2024-02-04T13:19:34;11.83;81.28
216;HTU21D;70668;48.81286795;9.14184224;2024-02-04T13:22:03;11.48;81.88
216;HTU21D;70668;48.81286795;9.14184224;2024-02-04T13:24:32;11.67;82.31
216;HTU21D;70668;48.81286795;9.14184224;2024-02-04T13:27:01;11.23;83.33
216;HTU21D;70668;48.81286795;9.14184224;2024-02-04T13:29:37;11.45;82.76
216;HTU21D;70668;48.81286795;9.14184224;2024-02-04T13:32:06;11.42;83.26
216;HTU21D;70668;48.81286795;9.14184224;2024-02-04T13:34:34;11.38;83.74
216;HTU21D;70668;48.81286795;9.14184224;2024-02-04T13:37:03;11.34;83.68
216;HTU21D;70668;48.81286795;9.14184224;2024-02-04T13:39:32;11.30;84.21
216;HTU21D;70668;48.81286795;9.14184224;2024-02-04T13:42:00;11.24;84.59
216;HTU21D;70668;48.81286795;9.14184224;2024-02-04T13:44:29;11.30;84.22
216;HTU21D;70668;48.81286795;9.14184224;2024-02-04T13:47:00;11.23;84.50
216;HTU21D;70668;48.81286795;9.14184224;2024-02-04T13:49:28;11.28;84.48
216;HTU21D;70668;48.81286795;9.14184224;2024-02-04T13:51:57;11.38;84.00
216;HTU21D;70668;48.81286795;9.14184224;2024-02-04T13:54:26;11.62;83.58